sensor_id;sensor_type;location;lat;lon;timestamp;pressure;altitude;pressure_sealevel;temperature;humidity
56912;BME280;42800;53.928;27.662;2022-09-21T00:00:42;99017.47;;;10.70;100.00
56912;BME280;42800;53.928;27.662;2022-09-21T00:03:09;99017.03;;;10.68;100.00
56912;BME280;42800;53.928;27.662;2022-09-21T00:05:35;99017.34;;;10.63;100.00
56912;BME280;42800;53.928;27.662;2022-09-21T00:08:02;99015.41;;;10.63;100.00
56912;BME280;42800;53.928;27.662;2022-09-21T00:10:30;99016.22;;;10.64;100.00
56912;BME280;42800;53.928;27.662;2022-09-21T00:12:58;99009.81;;;10.56;100.00
56912;BME280;42800;53.928;27.662;2022-09-21T00:15:28;99008.66;;;10.57;100.00
56912;BME280;42800;53.928;27.662;2022-09-21T00:17:56;99008.66;;;10.57;100.00
56912;BME280;42800;53.928;27.662;2022-09-21T00:20:23;99003.59;;;10.59;100.00
56912;BME280;42800;53.928;27.662;2022-09-21T00:22:50;99002.44;;;10.60;100.00
56912;BME280;42800;53.928;27.662;2022-09-21T00:25:17;99002.41;;;10.56;100.00
56912;BME280;42800;53.928;27.662;2022-09-21T00:27:45;99003.59;;;10.59;100.00
56912;BME280;42800;53.928;27.662;2022-09-21T00:30:16;99012.28;;;10.38;100.00
56912;BME280;42800;53.928;27.662;2022-09-21T00:32:42;98998.78;;;10.52;100.00
56912;BME280;42800;53.928;27.662;2022-09-21T00:35:09;99003.22;;;10.60;100.00
56912;BME280;42800;53.928;27.662;2022-09-21T00:37:35;98999.75;;;10.64;100.00
56912;BME280;42800;53.928;27.662;2022-09-21T00:40:02;99014.19;;;10.60;100.00
56912;BME280;42800;53.928;27.662;2022-09-21T00:42:30;99011.06;;;10.62;100.00
56912;BME280;42800;53.928;27.662;2022-09-21T00:44:58;99011.91;;;10.66;100.00
56912;BME280;42800;53.928;27.662;2022-09-21T00:47:27;99017.88;;;10.72;100.00
56912;BME280;42800;53.928;27.662;2022-09-21T00:49:57;99011.63;;;10.71;100.00
56912;BME280;42800;53.928;27.662;2022-09-21T00:52:25;99013.91;;;10.69;100.00
56912;BME280;42800;53.928;27.662;2022-09-21T00:54:55;99015.78;;;10.62;100.00
56912;BME280;42800;53.928;27.662;2022-09-21T00:57:25;99021.34;;;10.69;100.00
56912;BME280;42800;53.928;27.662;2022-09-21T00:59:55;99018.25;;;10.70;100.00
56912;BME280;42800;53.928;27.662;2022-09-21T01:02:23;99020.53;;;10.65;100.00
56912;BME280;42800;53.928;27.662;2022-09-21T01:04:51;99016.31;;;10.71;100.00
56912;BME280;42800;53.928;27.662;2022-09-21T01:07:21;99011.34;;;10.80;100.00
56912;BME280;42800;53.928;27.662;2022-09-21T01:09:52;99020.63;;;10.72;100.00
56912;BME280;42800;53.928;27.662;2022-09-21T01:12:29;99025.41;;;10.78;100.00
56912;BME280;42800;53.928;27.662;2022-09-21T01:15:15;99025.00;;;10.76;100.00
56912;BME280;42800;53.928;27.662;2022-09-21T01:17:51;99048.94;;;10.79;100.00
56912;BME280;42800;53.928;27.662;2022-09-21T01:20:52;99050.72;;;10.68;100.00
56912;BME280;42800;53.928;27.662;2022-09-21T01:23:33;99044.47;;;10.45;100.00
56912;BME280;42800;53.928;27.662;2022-09-21T01:26:10;99036.47;;;10.59;100.00
56912;BME280;42800;53.928;27.662;2022-09-21T01:29:10;99031.97;;;10.70;100.00
56912;BME280;42800;53.928;27.662;2022-09-21T01:31:41;99033.97;;;10.73;100.00
56912;BME280;42800;53.928;27.662;2022-09-21T01:34:15;99037.03;;;10.68;100.00
56912;BME280;42800;53.928;27.662;2022-09-21T01:36:43;99035.84;;;10.69;100.00
56912;BME280;42800;53.928;27.662;2022-09-21T01:39:15;99034.28;;;10.68;100.00
56912;BME280;42800;53.928;27.662;2022-09-21T01:41:43;99031.97;;;10.70;100.00
56912;BME280;42800;53.928;27.662;2022-09-21T01:44:16;99038.25;;;10.71;100.00
56912;BME280;42800;53.928;27.662;2022-09-21T01:46:45;99038.97;;;10.68;100.00
56912;BME280;42800;53.928;27.662;2022-09-21T01:49:14;99049.09;;;10.64;100.00
56912;BME280;42800;53.928;27.662;2022-09-21T01:51:45;99052.31;;;10.69;100.00
56912;BME280;42800;53.928;27.662;2022-09-21T01:54:16;99051.06;;;10.63;100.00
56912;BME280;42800;53.928;27.662;2022-09-21T01:56:46;99058.47;;;10.63;100.00
56912;BME280;42800;53.928;27.662;2022-09-21T01:59:20;99060.38;;;10.58;100.00
56912;BME280;42800;53.928;27.662;2022-09-21T02:01:52;99064.38;;;10.65;100.00
56912;BME280;42800;53.928;27.662;2022-09-21T02:04:18;99063.53;;;10.60;100.00
56912;BME280;42800;53.928;27.662;2022-09-21T02:06:46;99063.91;;;10.59;100.00
56912;BME280;42800;53.928;27.662;2022-09-21T02:09:13;99061.59;;;10.61;100.00
56912;BME280;42800;53.928;27.662;2022-09-21T02:11:39;99063.16;;;10.62;100.00
56912;BME280;42800;53.928;27.662;2022-09-21T02:14:09;99066.28;;;10.60;100.00
56912;BME280;42800;53.928;27.662;2022-09-21T02:16:39;99065.50;;;10.60;100.00
56912;BME280;42800;53.928;27.662;2022-09-21T02:19:13;99068.66;;;10.62;100.00
56912;BME280;42800;53.928;27.662;2022-09-21T02:21:50;99075.25;;;10.57;100.00
56912;BME280;42800;53.928;27.662;2022-09-21T02:24:28;99079.88;;;10.53;100.00
56912;BME280;42800;53.928;27.662;2022-09-21T02:27:03;99074.28;;;10.46;100.00
56912;BME280;42800;53.928;27.662;2022-09-21T02:29:36;99066.53;;;10.52;100.00
56912;BME280;42800;53.928;27.662;2022-09-21T02:32:08;99072.50;;;10.57;100.00
56912;BME280;42800;53.928;27.662;2022-09-21T02:34:43;99073.66;;;10.56;100.00
56912;BME280;42800;53.928;27.662;2022-09-21T02:37:16;99069.03;;;10.60;100.00
56912;BME280;42800;53.928;27.662;2022-09-21T02:39:49;99078.38;;;10.59;100.00
56912;BME280;42800;53.928;27.662;2022-09-21T02:42:23;99080.66;;;10.54;100.00
56912;BME280;42800;53.928;27.662;2022-09-21T02:44:57;99083.47;;;10.57;100.00
56912;BME280;42800;53.928;27.662;2022-09-21T02:47:32;99087.28;;;10.53;100.00
56912;BME280;42800;53.928;27.662;2022-09-21T02:50:03;99080.59;;;10.50;100.00
56912;BME280;42800;53.928;27.662;2022-09-21T02:52:32;99082.28;;;10.58;100.00
56912;BME280;42800;53.928;27.662;2022-09-21T02:55:00;99080.34;;;10.59;100.00
56912;BME280;42800;53.928;27.662;2022-09-21T02:57:27;99078.78;;;10.58;100.00
56912;BME280;42800;53.928;27.662;2022-09-21T02:59:53;99076.88;;;10.62;100.00
56912;BME280;42800;53.928;27.662;2022-09-21T03:02:20;99081.88;;;10.56;100.00
56912;BME280;42800;53.928;27.662;2022-09-21T03:04:47;99079.22;;;10.60;100.00
56912;BME280;42800;53.928;27.662;2022-09-21T03:07:15;99081.22;;;10.63;100.00
56912;BME280;42800;53.928;27.662;2022-09-21T03:09:41;99090.63;;;10.66;100.00
56912;BME280;42800;53.928;27.662;2022-09-21T03:12:08;99086.25;;;10.61;100.00
56912;BME280;42800;53.928;27.662;2022-09-21T03:14:34;99085.72;;;10.52;100.00
56912;BME280;42800;53.928;27.662;2022-09-21T03:17:00;99084.69;;;10.60;100.00
56912;BME280;42800;53.928;27.662;2022-09-21T03:19:26;99088.28;;;10.64;100.00
56912;BME280;42800;53.928;27.662;2022-09-21T03:21:54;99095.66;;;10.60;100.00
56912;BME280;42800;53.928;27.662;2022-09-21T03:24:20;99094.53;;;10.65;100.00
56912;BME280;42800;53.928;27.662;2022-09-21T03:27:01;99098.84;;;10.66;100.00
56912;BME280;42800;53.928;27.662;2022-09-21T03:29:27;99105.44;;;10.61;100.00
56912;BME280;42800;53.928;27.662;2022-09-21T03:31:54;99104.97;;;10.55;100.00
56912;BME280;42800;53.928;27.662;2022-09-21T03:34:21;99104.13;;;10.51;100.00
56912;BME280;42800;53.928;27.662;2022-09-21T03:36:47;99097.91;;;10.54;100.00
56912;BME280;42800;53.928;27.662;2022-09-21T03:39:14;99111.66;;;10.58;100.00
56912;BME280;42800;53.928;27.662;2022-09-21T03:41:40;99111.94;;;10.53;100.00
56912;BME280;42800;53.928;27.662;2022-09-21T03:44:06;99118.13;;;10.46;100.00
56912;BME280;42800;53.928;27.662;2022-09-21T03:46:32;99108.19;;;10.38;100.00
56912;BME280;42800;53.928;27.662;2022-09-21T03:48:59;99114.28;;;10.51;100.00
56912;BME280;42800;53.928;27.662;2022-09-21T03:51:27;99111.44;;;10.44;100.00
56912;BME280;42800;53.928;27.662;2022-09-21T03:53:55;99112.03;;;10.33;100.00
56912;BME280;42800;53.928;27.662;2022-09-21T03:56:22;99115.75;;;10.45;100.00
56912;BME280;42800;53.928;27.662;2022-09-21T03:58:48;99120.72;;;10.39;100.00
56912;BME280;42800;53.928;27.662;2022-09-21T04:01:15;99112.22;;;10.44;100.00
56912;BME280;42800;53.928;27.662;2022-09-21T04:03:41;99118.59;;;10.52;100.00
56912;BME280;42800;53.928;27.662;2022-09-21T04:06:08;99120.31;;;10.37;100.00
56912;BME280;42800;53.928;27.662;2022-09-21T04:08:34;99114.91;;;10.41;100.00
56912;BME280;42800;53.928;27.662;2022-09-21T04:11:00;99106.06;;;10.51;100.00
56912;BME280;42800;53.928;27.662;2022-09-21T04:13:34;99114.34;;;10.54;100.00
56912;BME280;42800;53.928;27.662;2022-09-21T04:16:01;99121.47;;;10.59;100.00
56912;BME280;42800;53.928;27.662;2022-09-21T04:18:27;99130.13;;;10.61;100.00
56912;BME280;42800;53.928;27.662;2022-09-21T04:20:53;99130.47;;;10.59;100.00
56912;BME280;42800;53.928;27.662;2022-09-21T04:23:19;99138.41;;;10.65;100.00
56912;BME280;42800;53.928;27.662;2022-09-21T04:25:48;99147.75;;;10.60;100.00
56912;BME280;42800;53.928;27.662;2022-09-21T04:28:15;99139.19;;;10.65;100.00
56912;BME280;42800;53.928;27.662;2022-09-21T04:30:42;99149.81;;;10.67;100.00
56912;BME280;42800;53.928;27.662;2022-09-21T04:33:09;99158.81;;;10.67;100.00
56912;BME280;42800;53.928;27.662;2022-09-21T04:35:35;99157.97;;;10.63;100.00
56912;BME280;42800;53.928;27.662;2022-09-21T04:38:01;99159.72;;;10.75;100.00
56912;BME280;42800;53.928;27.662;2022-09-21T04:40:28;99169.19;;;10.16;100.00
56912;BME280;42800;53.928;27.662;2022-09-21T04:42:54;99147.00;;;10.63;100.00
56912;BME280;42800;53.928;27.662;2022-09-21T04:45:21;99151.69;;;10.63;100.00
56912;BME280;42800;53.928;27.662;2022-09-21T04:47:48;99153.41;;;10.71;100.00
56912;BME280;42800;53.928;27.662;2022-09-21T04:50:15;99160.47;;;10.72;100.00
56912;BME280;42800;53.928;27.662;2022-09-21T04:52:41;99161.81;;;10.81;100.00
56912;BME280;42800;53.928;27.662;2022-09-21T04:55:07;99165.81;;;10.88;100.00
56912;BME280;42800;53.928;27.662;2022-09-21T04:57:34;99176.78;;;10.88;100.00
56912;BME280;42800;53.928;27.662;2022-09-21T05:00:01;99182.44;;;10.75;100.00
56912;BME280;42800;53.928;27.662;2022-09-21T05:02:27;99182.03;;;10.73;100.00
56912;BME280;42800;53.928;27.662;2022-09-21T05:04:54;99185.06;;;10.91;100.00
56912;BME280;42800;53.928;27.662;2022-09-21T05:07:20;99190.28;;;10.96;100.00
56912;BME280;42800;53.928;27.662;2022-09-21T05:09:47;99204.38;;;10.75;100.00
56912;BME280;42800;53.928;27.662;2022-09-21T05:12:28;99185.06;;;10.91;100.00
56912;BME280;42800;53.928;27.662;2022-09-21T05:14:54;99183.44;;;11.10;100.00
56912;BME280;42800;53.928;27.662;2022-09-21T05:17:21;99196.72;;;11.07;100.00
56912;BME280;42800;53.928;27.662;2022-09-21T05:19:47;99200.91;;;10.78;100.00
56912;BME280;42800;53.928;27.662;2022-09-21T05:22:14;99187.44;;;10.93;100.00
56912;BME280;42800;53.928;27.662;2022-09-21T05:24:40;99188.03;;;11.05;100.00
56912;BME280;42800;53.928;27.662;2022-09-21T05:27:07;99195.50;;;11.05;100.00
56912;BME280;42800;53.928;27.662;2022-09-21T05:29:33;99223.59;;;11.21;100.00
56912;BME280;42800;53.928;27.662;2022-09-21T05:32:04;99225.34;;;11.33;100.00
56912;BME280;42800;53.928;27.662;2022-09-21T05:34:41;99246.16;;;11.34;100.00
56912;BME280;42800;53.928;27.662;2022-09-21T05:37:19;99252.47;;;11.38;100.00
56912;BME280;42800;53.928;27.662;2022-09-21T05:39:49;99255.44;;;11.52;100.00
56912;BME280;42800;53.928;27.662;2022-09-21T05:42:16;99253.91;;;11.55;100.00
56912;BME280;42800;53.928;27.662;2022-09-21T05:44:43;99267.78;;;11.66;100.00
56912;BME280;42800;53.928;27.662;2022-09-21T05:47:21;99276.47;;;11.68;100.00
56912;BME280;42800;53.928;27.662;2022-09-21T05:49:54;99290.63;;;11.70;100.00
56912;BME280;42800;53.928;27.662;2022-09-21T05:52:30;99296.69;;;11.83;100.00
56912;BME280;42800;53.928;27.662;2022-09-21T05:55:05;99311.38;;;11.67;100.00
56912;BME280;42800;53.928;27.662;2022-09-21T05:57:42;99315.00;;;11.98;100.00
56912;BME280;42800;53.928;27.662;2022-09-21T06:00:15;99318.34;;;11.84;100.00
56912;BME280;42800;53.928;27.662;2022-09-21T06:02:53;99305.31;;;11.81;100.00
56912;BME280;42800;53.928;27.662;2022-09-21T06:05:23;99281.38;;;11.82;100.00
56912;BME280;42800;53.928;27.662;2022-09-21T06:07:50;99294.22;;;11.74;100.00
56912;BME280;42800;53.928;27.662;2022-09-21T06:10:16;99283.28;;;11.51;100.00
56912;BME280;42800;53.928;27.662;2022-09-21T06:12:43;99267.06;;;11.19;100.00
56912;BME280;42800;53.928;27.662;2022-09-21T06:15:12;99262.88;;;11.52;100.00
56912;BME280;42800;53.928;27.662;2022-09-21T06:17:39;99267.00;;;11.65;100.00
56912;BME280;42800;53.928;27.662;2022-09-21T06:20:06;99286.84;;;11.55;100.00
56912;BME280;42800;53.928;27.662;2022-09-21T06:22:32;99310.00;;;11.54;100.00
56912;BME280;42800;53.928;27.662;2022-09-21T06:25:00;99299.00;;;12.04;100.00
56912;BME280;42800;53.928;27.662;2022-09-21T06:27:27;99323.53;;;12.19;100.00
56912;BME280;42800;53.928;27.662;2022-09-21T06:29:53;99337.84;;;12.32;100.00
56912;BME280;42800;53.928;27.662;2022-09-21T06:32:19;99378.03;;;12.70;100.00
56912;BME280;42800;53.928;27.662;2022-09-21T06:34:46;99403.25;;;13.06;100.00
56912;BME280;42800;53.928;27.662;2022-09-21T06:37:12;99408.97;;;13.24;100.00
56912;BME280;42800;53.928;27.662;2022-09-21T06:39:38;99418.22;;;13.46;100.00
56912;BME280;42800;53.928;27.662;2022-09-21T06:42:05;99417.88;;;13.48;100.00
56912;BME280;42800;53.928;27.662;2022-09-21T06:44:32;99407.94;;;14.32;100.00
56912;BME280;42800;53.928;27.662;2022-09-21T06:46:58;99378.31;;;14.22;100.00
56912;BME280;42800;53.928;27.662;2022-09-21T06:49:24;99332.44;;;14.51;100.00
56912;BME280;42800;53.928;27.662;2022-09-21T06:51:53;99309.34;;;14.15;100.00
56912;BME280;42800;53.928;27.662;2022-09-21T06:54:19;99312.44;;;14.06;100.00
56912;BME280;42800;53.928;27.662;2022-09-21T06:56:46;99342.34;;;14.00;100.00
56912;BME280;42800;53.928;27.662;2022-09-21T06:59:12;99348.97;;;13.92;100.00
56912;BME280;42800;53.928;27.662;2022-09-21T07:01:39;99352.00;;;14.31;100.00
56912;BME280;42800;53.928;27.662;2022-09-21T07:04:05;99285.38;;;14.26;100.00
56912;BME280;42800;53.928;27.662;2022-09-21T07:06:33;99175.63;;;14.96;100.00
56912;BME280;42800;53.928;27.662;2022-09-21T07:09:00;99128.31;;;14.94;100.00
56912;BME280;42800;53.928;27.662;2022-09-21T07:11:27;98958.84;;;15.68;100.00
56912;BME280;42800;53.928;27.662;2022-09-21T07:13:53;98864.09;;;15.68;100.00
56912;BME280;42800;53.928;27.662;2022-09-21T07:16:21;98810.59;;;15.40;100.00
56912;BME280;42800;53.928;27.662;2022-09-21T07:18:47;98780.31;;;15.26;100.00
56912;BME280;42800;53.928;27.662;2022-09-21T07:21:14;98912.66;;;14.85;100.00
56912;BME280;42800;53.928;27.662;2022-09-21T07:23:40;99045.47;;;14.22;100.00
56912;BME280;42800;53.928;27.662;2022-09-21T07:26:09;99090.28;;;13.76;100.00
56912;BME280;42800;53.928;27.662;2022-09-21T07:28:36;99023.34;;;13.72;100.00
56912;BME280;42800;53.928;27.662;2022-09-21T07:31:05;99181.34;;;13.39;100.00
56912;BME280;42800;53.928;27.662;2022-09-21T07:33:33;99332.97;;;13.57;100.00
56912;BME280;42800;53.928;27.662;2022-09-21T07:36:01;99328.66;;;13.59;100.00
56912;BME280;42800;53.928;27.662;2022-09-21T07:38:34;99390.94;;;12.97;100.00
56912;BME280;42800;53.928;27.662;2022-09-21T07:41:01;99353.78;;;13.13;100.00
56912;BME280;42800;53.928;27.662;2022-09-21T07:43:27;99409.03;;;12.67;100.00
56912;BME280;42800;53.928;27.662;2022-09-21T07:45:54;99389.66;;;12.57;100.00
56912;BME280;42800;53.928;27.662;2022-09-21T07:48:20;99386.69;;;12.72;100.00
56912;BME280;42800;53.928;27.662;2022-09-21T07:50:48;99384.94;;;12.87;100.00
56912;BME280;42800;53.928;27.662;2022-09-21T07:53:14;99370.75;;;12.85;100.00
56912;BME280;42800;53.928;27.662;2022-09-21T07:55:42;99427.16;;;12.72;100.00
56912;BME280;42800;53.928;27.662;2022-09-21T07:58:08;99458.03;;;12.88;100.00
56912;BME280;42800;53.928;27.662;2022-09-21T08:00:52;99457.88;;;13.04;100.00
56912;BME280;42800;53.928;27.662;2022-09-21T08:03:19;99454.59;;;12.95;100.00
56912;BME280;42800;53.928;27.662;2022-09-21T08:05:45;99462.63;;;13.07;100.00
56912;BME280;42800;53.928;27.662;2022-09-21T08:08:12;99471.22;;;13.36;100.00
56912;BME280;42800;53.928;27.662;2022-09-21T08:10:40;99456.44;;;12.84;100.00
56912;BME280;42800;53.928;27.662;2022-09-21T08:13:06;99463.84;;;13.10;100.00
56912;BME280;42800;53.928;27.662;2022-09-21T08:15:32;99466.69;;;13.17;100.00
56912;BME280;42800;53.928;27.662;2022-09-21T08:17:58;99467.16;;;13.56;100.00
56912;BME280;42800;53.928;27.662;2022-09-21T08:20:27;99449.22;;;13.73;100.00
56912;BME280;42800;53.928;27.662;2022-09-21T08:22:54;99453.88;;;13.69;100.00
56912;BME280;42800;53.928;27.662;2022-09-21T08:25:22;99452.09;;;13.87;100.00
56912;BME280;42800;53.928;27.662;2022-09-21T08:27:48;99431.88;;;13.73;100.00
56912;BME280;42800;53.928;27.662;2022-09-21T08:30:14;99417.66;;;14.11;100.00
56912;BME280;42800;53.928;27.662;2022-09-21T08:32:40;99383.69;;;13.97;100.00
56912;BME280;42800;53.928;27.662;2022-09-21T08:35:07;99410.31;;;13.82;100.00
56912;BME280;42800;53.928;27.662;2022-09-21T08:37:34;99400.16;;;13.89;100.00
56912;BME280;42800;53.928;27.662;2022-09-21T08:40:03;99358.91;;;14.00;100.00
56912;BME280;42800;53.928;27.662;2022-09-21T08:42:38;99364.72;;;13.92;100.00
56912;BME280;42800;53.928;27.662;2022-09-21T08:45:09;99378.00;;;14.30;100.00
56912;BME280;42800;53.928;27.662;2022-09-21T08:47:40;99289.75;;;14.30;100.00
56912;BME280;42800;53.928;27.662;2022-09-21T08:50:21;99213.44;;;14.59;100.00
56912;BME280;42800;53.928;27.662;2022-09-21T08:52:49;99139.38;;;14.94;100.00
56912;BME280;42800;53.928;27.662;2022-09-21T08:55:18;99097.56;;;14.81;100.00
56912;BME280;42800;53.928;27.662;2022-09-21T08:57:46;99243.25;;;14.29;100.00
56912;BME280;42800;53.928;27.662;2022-09-21T09:00:14;99145.25;;;14.85;100.00
56912;BME280;42800;53.928;27.662;2022-09-21T09:03:00;99119.66;;;14.63;100.00
56912;BME280;42800;53.928;27.662;2022-09-21T09:05:38;99188.97;;;14.51;100.00
56912;BME280;42800;53.928;27.662;2022-09-21T09:08:25;99234.75;;;14.70;100.00
56912;BME280;42800;53.928;27.662;2022-09-21T09:11:05;99261.88;;;14.50;100.00
56912;BME280;42800;53.928;27.662;2022-09-21T09:13:51;99352.88;;;14.46;100.00
56912;BME280;42800;53.928;27.662;2022-09-21T09:16:29;99300.59;;;14.75;100.00
56912;BME280;42800;53.928;27.662;2022-09-21T09:19:09;99202.81;;;14.76;100.00
56912;BME280;42800;53.928;27.662;2022-09-21T09:21:45;99237.53;;;14.80;100.00
56912;BME280;42800;53.928;27.662;2022-09-21T09:24:14;99194.16;;;14.99;100.00
56912;BME280;42800;53.928;27.662;2022-09-21T09:26:45;99129.41;;;14.39;100.00
56912;BME280;42800;53.928;27.662;2022-09-21T09:29:19;99112.94;;;14.68;100.00
56912;BME280;42800;53.928;27.662;2022-09-21T09:31:47;99210.28;;;14.65;100.00
56912;BME280;42800;53.928;27.662;2022-09-21T09:34:18;99211.91;;;14.94;100.00
56912;BME280;42800;53.928;27.662;2022-09-21T09:36:53;99125.94;;;14.71;100.00
56912;BME280;42800;53.928;27.662;2022-09-21T09:39:21;99009.25;;;14.77;100.00
56912;BME280;42800;53.928;27.662;2022-09-21T09:42:08;98933.94;;;14.84;100.00
56912;BME280;42800;53.928;27.662;2022-09-21T09:44:58;98978.25;;;15.50;100.00
56912;BME280;42800;53.928;27.662;2022-09-21T09:47:35;98873.44;;;15.85;100.00
56912;BME280;42800;53.928;27.662;2022-09-21T09:50:10;98832.50;;;15.69;100.00
56912;BME280;42800;53.928;27.662;2022-09-21T09:52:39;98647.50;;;15.54;100.00
56912;BME280;42800;53.928;27.662;2022-09-21T09:55:15;98565.50;;;15.44;100.00
56912;BME280;42800;53.928;27.662;2022-09-21T09:57:45;98637.28;;;15.86;100.00
56912;BME280;42800;53.928;27.662;2022-09-21T10:00:13;98698.88;;;15.90;100.00
56912;BME280;42800;53.928;27.662;2022-09-21T10:02:46;98621.56;;;15.79;100.00
56912;BME280;42800;53.928;27.662;2022-09-21T10:05:20;98677.63;;;15.38;100.00
56912;BME280;42800;53.928;27.662;2022-09-21T10:07:47;98626.59;;;15.53;100.00
56912;BME280;42800;53.928;27.662;2022-09-21T10:10:29;98567.00;;;15.52;100.00
56912;BME280;42800;53.928;27.662;2022-09-21T10:13:04;98515.13;;;14.99;100.00
56912;BME280;42800;53.928;27.662;2022-09-21T10:15:31;98446.59;;;15.55;100.00
56912;BME280;42800;53.928;27.662;2022-09-21T10:18:04;98490.34;;;15.60;100.00
56912;BME280;42800;53.928;27.662;2022-09-21T10:20:31;98358.84;;;15.66;100.00
56912;BME280;42800;53.928;27.662;2022-09-21T10:22:59;98383.66;;;15.70;100.00
56912;BME280;42800;53.928;27.662;2022-09-21T10:25:26;98377.41;;;16.16;100.00
56912;BME280;42800;53.928;27.662;2022-09-21T10:27:54;98384.34;;;16.24;100.00
56912;BME280;42800;53.928;27.662;2022-09-21T10:30:34;98308.50;;;15.79;100.00
56912;BME280;42800;53.928;27.662;2022-09-21T10:33:06;98217.50;;;15.44;100.00
56912;BME280;42800;53.928;27.662;2022-09-21T10:35:48;98317.50;;;15.32;100.00
56912;BME280;42800;53.928;27.662;2022-09-21T10:38:17;98402.94;;;15.46;100.00
56912;BME280;42800;53.928;27.662;2022-09-21T10:40:44;98266.28;;;15.78;100.00
56912;BME280;42800;53.928;27.662;2022-09-21T10:43:22;98247.22;;;15.60;100.00
56912;BME280;42800;53.928;27.662;2022-09-21T10:45:54;98255.66;;;15.76;100.00
56912;BME280;42800;53.928;27.662;2022-09-21T10:48:23;98228.41;;;15.98;100.00
56912;BME280;42800;53.928;27.662;2022-09-21T10:50:50;98185.38;;;15.77;100.00
56912;BME280;42800;53.928;27.662;2022-09-21T10:53:23;98118.50;;;15.66;100.00
56912;BME280;42800;53.928;27.662;2022-09-21T10:55:56;98079.91;;;15.99;100.00
56912;BME280;42800;53.928;27.662;2022-09-21T10:58:23;98060.88;;;16.21;100.00
56912;BME280;42800;53.928;27.662;2022-09-21T11:00:50;98032.94;;;16.15;100.00
56912;BME280;42800;53.928;27.662;2022-09-21T11:03:41;98053.47;;;16.34;100.00
56912;BME280;42800;53.928;27.662;2022-09-21T11:06:14;98079.22;;;16.47;100.00
56912;BME280;42800;53.928;27.662;2022-09-21T11:08:51;98100.19;;;16.29;100.00
56912;BME280;42800;53.928;27.662;2022-09-21T11:11:41;98053.03;;;16.19;100.00
56912;BME280;42800;53.928;27.662;2022-09-21T11:14:38;98064.22;;;16.12;100.00
56912;BME280;42800;53.928;27.662;2022-09-21T11:17:10;98061.63;;;15.65;100.00
56912;BME280;42800;53.928;27.662;2022-09-21T11:19:41;98096.66;;;15.28;100.00
56912;BME280;42800;53.928;27.662;2022-09-21T11:22:17;98074.94;;;15.30;100.00
56912;BME280;42800;53.928;27.662;2022-09-21T11:24:52;98173.41;;;14.90;100.00
56912;BME280;42800;53.928;27.662;2022-09-21T11:27:24;98163.34;;;15.27;100.00
56912;BME280;42800;53.928;27.662;2022-09-21T11:29:57;98092.78;;;15.02;100.00
56912;BME280;42800;53.928;27.662;2022-09-21T11:32:52;98178.31;;;15.29;100.00
56912;BME280;42800;53.928;27.662;2022-09-21T11:35:33;98078.69;;;14.97;100.00
56912;BME280;42800;53.928;27.662;2022-09-21T11:38:04;98111.03;;;15.20;100.00
56912;BME280;42800;53.928;27.662;2022-09-21T11:40:55;98129.47;;;15.03;100.00
56912;BME280;42800;53.928;27.662;2022-09-21T11:43:44;98125.09;;;15.25;100.00
56912;BME280;42800;53.928;27.662;2022-09-21T11:46:23;98084.22;;;15.40;100.00
56912;BME280;42800;53.928;27.662;2022-09-21T11:49:02;98023.72;;;15.26;100.00
56912;BME280;42800;53.928;27.662;2022-09-21T11:51:43;98050.94;;;15.87;100.00
56912;BME280;42800;53.928;27.662;2022-09-21T11:57:15;98073.00;;;15.71;100.00
56912;BME280;42800;53.928;27.662;2022-09-21T12:00:00;98042.72;;;15.24;100.00
56912;BME280;42800;53.928;27.662;2022-09-21T12:02:39;98108.22;;;15.67;100.00
56912;BME280;42800;53.928;27.662;2022-09-21T12:05:17;98044.13;;;15.92;100.00
56912;BME280;42800;53.928;27.662;2022-09-21T12:08:03;97991.44;;;15.63;100.00
56912;BME280;42800;53.928;27.662;2022-09-21T12:10:43;98001.50;;;15.13;100.00
56912;BME280;42800;53.928;27.662;2022-09-21T12:13:22;97993.56;;;15.35;100.00
56912;BME280;42800;53.928;27.662;2022-09-21T12:15:57;97984.44;;;15.58;100.00
56912;BME280;42800;53.928;27.662;2022-09-21T12:18:31;97985.84;;;16.03;100.00
56912;BME280;42800;53.928;27.662;2022-09-21T12:21:03;97998.31;;;16.43;100.00
56912;BME280;42800;53.928;27.662;2022-09-21T12:23:37;98003.84;;;16.43;100.00
56912;BME280;42800;53.928;27.662;2022-09-21T12:26:06;98006.69;;;15.71;100.00
56912;BME280;42800;53.928;27.662;2022-09-21T12:28:38;98034.50;;;15.40;100.00
56912;BME280;42800;53.928;27.662;2022-09-21T12:31:12;98027.13;;;15.14;100.00
56912;BME280;42800;53.928;27.662;2022-09-21T12:33:44;98024.34;;;14.70;100.00
56912;BME280;42800;53.928;27.662;2022-09-21T12:36:15;98026.31;;;14.46;100.00
56912;BME280;42800;53.928;27.662;2022-09-21T12:38:49;98022.78;;;14.19;100.00
56912;BME280;42800;53.928;27.662;2022-09-21T12:41:21;98028.38;;;14.39;100.00
56912;BME280;42800;53.928;27.662;2022-09-21T12:43:56;98027.06;;;14.47;100.00
56912;BME280;42800;53.928;27.662;2022-09-21T12:46:31;98029.47;;;13.91;100.00
56912;BME280;42800;53.928;27.662;2022-09-21T12:48:59;98038.09;;;13.62;100.00
56912;BME280;42800;53.928;27.662;2022-09-21T12:51:30;98061.47;;;13.50;100.00
56912;BME280;42800;53.928;27.662;2022-09-21T12:54:00;98084.72;;;13.80;100.00
56912;BME280;42800;53.928;27.662;2022-09-21T12:56:36;98138.53;;;13.54;100.00
56912;BME280;42800;53.928;27.662;2022-09-21T12:59:21;98190.34;;;13.62;100.00
56912;BME280;42800;53.928;27.662;2022-09-21T13:01:53;98207.63;;;13.67;100.00